Time;durP1;ratioP1;P1;durP2;ratioP2;P2;SDS_P1;SDS_P2;PMS_P1;PMS_P2;Temp;Humidity;BMP_temperature;BMP_pressure;BME280_temperature;BME280_humidity;BME280_pressure;Samples;Min_cycle;Max_cycle;Signal;HPM_P1;HPM_P2
2023/08/14 00:01:58;;;;;;;8.82;6.40;;;14.60;99.90;;;;;;5074803;28;20121;-43
2023/08/14 00:04:24;;;;;;;9.63;6.53;;;14.60;99.90;;;;;;5076716;28;20048;-43
2023/08/14 00:06:49;;;;;;;10.63;6.57;;;14.60;99.90;;;;;;5074286;28;20490;-48
2023/08/14 00:09:15;;;;;;;8.30;6.35;;;14.60;99.90;;;;;;5072398;28;20536;-38
2023/08/14 00:11:41;;;;;;;7.07;5.60;;;14.60;99.90;;;;;;5056616;28;20048;-43
2023/08/14 00:14:06;;;;;;;7.88;6.70;;;14.60;99.90;;;;;;5053144;28;20052;-41
2023/08/14 00:16:32;;;;;;;7.72;6.35;;;14.60;99.90;;;;;;5056168;28;20052;-43
2023/08/14 00:18:57;;;;;;;9.18;6.28;;;14.60;99.90;;;;;;5054651;28;20051;-40
2023/08/14 00:21:23;;;;;;;7.72;6.28;;;14.60;99.90;;;;;;5055888;28;20056;-39
2023/08/14 00:23:49;;;;;;;10.00;6.38;;;14.60;99.90;;;;;;5052283;28;20066;-42
2023/08/14 00:26:15;;;;;;;9.02;6.45;;;14.50;99.90;;;;;;5053858;28;20486;-43
2023/08/14 00:28:41;;;;;;;10.85;6.47;;;14.50;99.90;;;;;;5055659;28;20056;-46
2023/08/14 00:31:07;;;;;;;8.07;6.18;;;14.50;99.90;;;;;;5064784;28;20051;-39
2023/08/14 00:33:33;;;;;;;9.25;6.75;;;14.50;99.90;;;;;;5075316;28;20040;-43
2023/08/14 00:35:59;;;;;;;7.80;6.35;;;14.50;99.90;;;;;;5074107;28;20494;-39
2023/08/14 00:38:24;;;;;;;9.75;6.95;;;14.60;99.90;;;;;;5074075;28;20044;-42
2023/08/14 00:40:52;;;;;;;7.43;6.68;;;14.60;99.90;;;;;;5064841;28;20044;-43
2023/08/14 00:43:20;;;;;;;8.35;7.10;;;14.60;99.90;;;;;;5071826;28;20063;-43
2023/08/14 00:45:46;;;;;;;8.70;6.50;;;14.60;99.90;;;;;;5063068;28;20052;-39
2023/08/14 00:48:14;;;;;;;8.65;6.95;;;14.60;99.90;;;;;;5074086;28;20398;-42
2023/08/14 00:50:40;;;;;;;7.40;6.43;;;14.60;99.90;;;;;;5076200;28;20079;-41
2023/08/14 00:53:06;;;;;;;8.90;6.32;;;14.60;99.90;;;;;;5050198;28;20052;-42
2023/08/14 00:55:31;;;;;;;7.07;6.38;;;14.60;99.90;;;;;;5061931;28;20106;-38
2023/08/14 00:57:57;;;;;;;9.23;6.65;;;14.60;99.90;;;;;;5073340;28;20577;-42
2023/08/14 01:00:24;;;;;;;7.88;5.95;;;14.60;99.90;;;;;;5075437;28;20048;-39
2023/08/14 01:02:50;;;;;;;9.20;6.45;;;14.60;99.90;;;;;;5074589;28;20087;-45
2023/08/14 01:05:16;;;;;;;6.97;6.30;;;14.60;99.90;;;;;;5074811;28;20178;-43
2023/08/14 01:07:41;;;;;;;9.18;6.78;;;14.60;99.90;;;;;;5074980;28;20048;-38
2023/08/14 01:10:09;;;;;;;8.90;6.85;;;14.60;99.90;;;;;;5075501;28;20054;-38
2023/08/14 01:12:53;;;;;;;14.05;6.60;;;14.60;99.90;;;;;;5074276;28;20048;-40
2023/08/14 01:15:36;;;;;;;8.13;5.82;;;14.60;99.90;;;;;;5057166;28;20179;-40
2023/08/14 01:18:03;;;;;;;8.17;6.50;;;14.60;99.90;;;;;;5054983;28;20423;-43
2023/08/14 01:20:32;;;;;;;7.75;6.20;;;14.70;99.90;;;;;;5071871;28;20301;-39
2023/08/14 01:23:22;;;;;;;9.63;6.93;;;14.70;99.90;;;;;;5068697;28;20043;-43
2023/08/14 01:25:51;;;;;;;9.93;6.97;;;14.60;99.90;;;;;;5074630;28;20217;-40
2023/08/14 01:28:17;;;;;;;14.55;7.85;;;14.60;99.90;;;;;;5060258;28;20103;-41
2023/08/14 01:30:43;;;;;;;9.43;6.93;;;14.60;99.90;;;;;;5074111;28;20090;-43
2023/08/14 01:33:09;;;;;;;8.15;6.65;;;14.60;99.90;;;;;;5065709;28;20119;-39
2023/08/14 01:35:52;;;;;;;11.13;6.88;;;14.60;99.90;;;;;;5079377;28;20383;-42
2023/08/14 01:38:30;;;;;;;;;;;14.60;99.90;;;;;;5080407;28;20055;-43
2023/08/14 01:41:16;;;;;;;7.45;6.65;;;14.60;99.90;;;;;;5079544;28;19924;-39
2023/08/14 01:43:50;;;;;;;8.60;7.15;;;14.60;99.90;;;;;;5079293;28;20058;-41
2023/08/14 01:46:17;;;;;;;7.90;7.03;;;14.60;99.90;;;;;;5076781;28;20051;-41
2023/08/14 01:48:46;;;;;;;9.10;7.32;;;14.60;99.90;;;;;;5067973;28;20055;-38
2023/08/14 01:51:13;;;;;;;11.05;7.60;;;14.50;99.90;;;;;;5076108;28;20469;-38
2023/08/14 01:53:40;;;;;;;10.82;7.75;;;14.50;99.90;;;;;;5047619;28;20063;-38
2023/08/14 01:56:06;;;;;;;10.00;7.68;;;14.50;99.90;;;;;;5039758;28;20424;-39
2023/08/14 01:58:34;;;;;;;9.93;7.68;;;14.50;99.90;;;;;;5058694;28;20048;-41
2023/08/14 02:01:00;;;;;;;9.52;7.50;;;14.50;99.90;;;;;;5051335;28;20185;-43
2023/08/14 02:03:26;;;;;;;9.60;7.22;;;14.50;99.90;;;;;;5066028;28;20039;-40
2023/08/14 02:05:51;;;;;;;8.02;7.15;;;14.50;99.90;;;;;;5075948;28;20861;-39
2023/08/14 02:08:17;;;;;;;9.82;7.50;;;14.50;99.90;;;;;;5078084;28;20805;-40
2023/08/14 02:10:43;;;;;;;11.23;7.75;;;14.50;99.90;;;;;;5078902;28;20075;-38
2023/08/14 02:13:08;;;;;;;8.93;7.13;;;14.40;99.90;;;;;;5077586;28;20044;-41
2023/08/14 02:15:34;;;;;;;8.07;7.22;;;14.40;99.90;;;;;;5059960;28;20055;-39
2023/08/14 02:18:00;;;;;;;9.85;7.65;;;14.40;99.90;;;;;;5067114;28;20044;-42
2023/08/14 02:20:25;;;;;;;12.55;8.25;;;14.40;99.90;;;;;;5078667;28;20055;-43
2023/08/14 02:22:51;;;;;;;7.97;7.28;;;14.40;99.90;;;;;;5062925;28;20063;-41
2023/08/14 02:25:17;;;;;;;8.05;7.25;;;14.40;99.90;;;;;;5056186;28;20052;-39
2023/08/14 02:27:43;;;;;;;7.88;7.05;;;14.40;99.90;;;;;;5056566;28;20059;-42
2023/08/14 02:30:08;;;;;;;8.40;7.68;;;14.30;99.90;;;;;;5056247;28;20491;-40
2023/08/14 02:32:34;;;;;;;11.70;8.63;;;14.40;99.90;;;;;;5057115;28;20047;-42
2023/08/14 02:35:00;;;;;;;10.10;8.45;;;14.30;99.90;;;;;;5059382;28;20051;-44
2023/08/14 02:37:25;;;;;;;9.88;7.90;;;14.30;99.90;;;;;;5078253;28;20044;-39
2023/08/14 02:39:51;;;;;;;8.68;7.88;;;14.30;99.90;;;;;;5077549;28;20167;-40
2023/08/14 02:42:18;;;;;;;8.38;7.57;;;14.30;99.90;;;;;;5077067;28;20116;-39
2023/08/14 02:44:44;;;;;;;9.02;8.13;;;14.30;99.90;;;;;;5077192;28;20551;-43
2023/08/14 02:47:10;;;;;;;11.43;7.82;;;14.30;99.90;;;;;;5066157;28;20048;-42
2023/08/14 02:49:36;;;;;;;9.23;8.15;;;14.30;99.90;;;;;;5075468;28;20451;-40
2023/08/14 02:52:02;;;;;;;9.80;7.82;;;14.30;99.90;;;;;;5059880;28;20067;-42
2023/08/14 02:54:28;;;;;;;10.15;8.35;;;14.30;99.90;;;;;;5052601;28;20052;-41
2023/08/14 02:56:54;;;;;;;11.13;8.68;;;14.30;99.90;;;;;;5057003;28;20059;-41
2023/08/14 02:59:19;;;;;;;9.50;8.57;;;14.30;99.90;;;;;;5057560;28;20052;-41
2023/08/14 03:01:45;;;;;;;9.90;9.00;;;14.30;99.90;;;;;;5057118;28;20079;-45
2023/08/14 03:04:11;;;;;;;10.63;9.63;;;14.30;99.90;;;;;;5056382;28;20539;-41
2023/08/14 03:06:36;;;;;;;11.45;8.90;;;14.30;99.90;;;;;;5057111;28;20059;-41
2023/08/14 03:09:03;;;;;;;12.68;9.43;;;14.20;99.90;;;;;;5056814;28;20056;-45
2023/08/14 03:11:28;;;;;;;15.30;10.23;;;14.20;99.90;;;;;;5057830;28;20159;-41
2023/08/14 03:13:54;;;;;;;10.63;9.63;;;14.20;99.90;;;;;;5054953;28;20329;-43
2023/08/14 03:16:20;;;;;;;10.15;9.15;;;14.20;99.90;;;;;;5056987;28;20053;-40
2023/08/14 03:18:45;;;;;;;11.88;9.88;;;14.20;99.90;;;;;;5070895;28;20051;-40
2023/08/14 03:21:11;;;;;;;12.13;10.27;;;14.20;99.90;;;;;;5066231;28;20047;-38
2023/08/14 03:23:37;;;;;;;12.00;10.57;;;14.20;99.90;;;;;;5069482;28;20044;-42
2023/08/14 03:26:04;;;;;;;11.85;10.60;;;14.20;99.90;;;;;;5075505;28;20036;-42
2023/08/14 03:28:29;;;;;;;11.05;10.02;;;14.20;99.90;;;;;;5077338;28;20079;-41
2023/08/14 03:30:55;;;;;;;15.70;11.98;;;14.20;99.90;;;;;;5076957;28;20155;-39
2023/08/14 03:33:21;;;;;;;14.57;12.10;;;14.20;99.90;;;;;;5076215;28;20514;-41
2023/08/14 03:35:46;;;;;;;15.63;12.93;;;14.20;99.90;;;;;;5075641;28;20051;-41
2023/08/14 03:38:12;;;;;;;15.98;11.20;;;14.10;99.90;;;;;;5075523;28;20059;-44
2023/08/14 03:40:38;;;;;;;12.93;10.93;;;14.10;99.90;;;;;;5077186;28;20048;-43
2023/08/14 03:43:03;;;;;;;14.15;11.80;;;14.10;99.90;;;;;;5076212;28;20310;-41
2023/08/14 03:45:29;;;;;;;14.27;12.25;;;14.10;99.90;;;;;;5076347;28;20084;-38
2023/08/14 03:47:55;;;;;;;14.65;10.70;;;14.00;99.90;;;;;;5075018;28;20185;-43
2023/08/14 03:50:21;;;;;;;14.30;12.90;;;14.10;99.90;;;;;;5076203;28;20048;-40
2023/08/14 03:52:48;;;;;;;15.57;13.52;;;14.00;99.90;;;;;;5059953;28;20559;-42
2023/08/14 03:55:13;;;;;;;14.98;13.48;;;14.00;99.90;;;;;;5054676;28;20123;-41
2023/08/14 03:57:39;;;;;;;14.45;12.95;;;14.00;99.90;;;;;;5056459;28;20611;-42
2023/08/14 04:00:06;;;;;;;20.15;14.95;;;14.00;99.90;;;;;;5056734;28;20531;-41
2023/08/14 04:02:32;;;;;;;14.45;12.95;;;13.90;99.90;;;;;;5052170;28;20777;-43
2023/08/14 04:04:58;;;;;;;15.50;13.80;;;14.00;99.90;;;;;;5052643;28;20040;-41
2023/08/14 04:07:23;;;;;;;17.85;13.05;;;13.90;99.90;;;;;;5054957;28;20094;-42
2023/08/14 04:09:49;;;;;;;19.38;14.18;;;13.90;99.90;;;;;;5056405;28;21029;-39
2023/08/14 04:12:15;;;;;;;16.45;14.52;;;14.00;99.90;;;;;;5054660;28;20075;-42
2023/08/14 04:14:40;;;;;;;15.15;13.55;;;14.00;99.90;;;;;;5052844;28;20399;-43
2023/08/14 04:17:06;;;;;;;17.73;14.57;;;13.90;99.90;;;;;;5056402;28;20052;-41
2023/08/14 04:19:32;;;;;;;16.38;14.65;;;13.90;99.90;;;;;;5056120;28;20052;-41
2023/08/14 04:21:57;;;;;;;15.48;13.90;;;13.90;99.90;;;;;;5053381;28;20403;-38
2023/08/14 04:24:23;;;;;;;19.13;14.43;;;14.00;99.90;;;;;;5055092;28;20517;-40
2023/08/14 04:26:49;;;;;;;21.98;16.08;;;14.00;99.90;;;;;;5056480;28;20044;-39
2023/08/14 04:29:16;;;;;;;17.67;14.63;;;14.00;99.90;;;;;;5056644;28;20078;-46
2023/08/14 04:31:42;;;;;;;17.73;14.88;;;14.00;99.90;;;;;;5054231;28;20056;-38
2023/08/14 04:34:09;;;;;;;16.65;14.88;;;14.00;99.90;;;;;;5056203;28;20048;-40
2023/08/14 04:36:35;;;;;;;16.45;14.77;;;14.00;99.90;;;;;;5053951;28;20112;-42
2023/08/14 04:39:03;;;;;;;17.20;14.18;;;14.10;99.90;;;;;;5055823;28;20070;-43
2023/08/14 04:41:29;;;;;;;15.07;13.50;;;14.20;99.90;;;;;;5055150;28;20479;-39
2023/08/14 04:43:55;;;;;;;16.08;14.13;;;14.20;99.90;;;;;;5055984;28;20636;-41
2023/08/14 04:46:32;;;;;;;16.60;14.68;;;14.30;99.90;;;;;;5044490;28;20055;-43
2023/08/14 04:48:58;;;;;;;16.73;14.45;;;14.30;99.90;;;;;;5055689;28;20052;-39
2023/08/14 04:51:24;;;;;;;16.02;13.25;;;14.40;99.90;;;;;;5051057;28;20083;-39
2023/08/14 04:53:49;;;;;;;15.68;14.23;;;14.40;99.90;;;;;;5056970;28;20040;-39
2023/08/14 04:56:15;;;;;;;14.98;13.38;;;14.50;99.90;;;;;;5074861;28;20059;-41
2023/08/14 04:58:41;;;;;;;17.15;15.35;;;14.60;99.90;;;;;;5075966;28;20101;-44
2023/08/14 05:01:06;;;;;;;19.38;15.25;;;14.70;99.90;;;;;;5075890;28;20043;-42
2023/08/14 05:03:32;;;;;;;15.75;14.10;;;14.80;99.90;;;;;;5075692;28;20040;-43
2023/08/14 05:05:58;;;;;;;15.70;12.75;;;14.80;99.90;;;;;;5070148;28;20053;-42
2023/08/14 05:08:23;;;;;;;16.02;13.55;;;14.80;99.90;;;;;;5054592;28;20044;-38
2023/08/14 05:10:53;;;;;;;17.83;13.60;;;14.80;99.90;;;;;;5073251;28;20456;-38
2023/08/14 05:13:19;;;;;;;15.98;13.95;;;14.90;99.90;;;;;;5075480;28;20080;-39
2023/08/14 05:15:50;;;;;;;17.25;14.60;;;14.90;99.90;;;;;;5052719;28;20637;-41
2023/08/14 05:18:16;;;;;;;15.60;14.00;;;14.90;99.90;;;;;;5065884;28;20472;-43
2023/08/14 05:20:46;;;;;;;20.02;14.70;;;14.90;99.90;;;;;;5075754;28;20136;-40
2023/08/14 05:23:12;;;;;;;15.25;13.48;;;15.00;99.90;;;;;;5058302;28;20139;-44
2023/08/14 05:25:38;;;;;;;17.00;15.23;;;15.00;99.90;;;;;;5061311;28;20117;-39
2023/08/14 05:28:05;;;;;;;15.73;14.02;;;15.10;99.90;;;;;;5075846;28;20048;-38
2023/08/14 05:30:31;;;;;;;18.25;15.02;;;15.30;99.90;;;;;;5074231;28;20055;-42
2023/08/14 05:32:57;;;;;;;17.58;14.43;;;15.40;99.90;;;;;;5063065;28;20048;-40
2023/08/14 05:35:25;;;;;;;15.75;13.43;;;15.40;99.90;;;;;;5055062;28;20407;-45
2023/08/14 05:37:52;;;;;;;16.45;14.63;;;15.50;99.90;;;;;;5068267;28;20395;-41
2023/08/14 05:40:24;;;;;;;17.63;14.25;;;15.60;99.90;;;;;;5075407;28;20502;-44
2023/08/14 05:43:09;;;;;;;16.00;14.40;;;15.60;99.90;;;;;;5074540;28;20044;-39
2023/08/14 05:45:41;;;;;;;16.60;13.85;;;15.70;99.90;;;;;;5074570;28;20079;-42
2023/08/14 05:48:07;;;;;;;17.63;14.10;;;15.80;99.90;;;;;;5069010;28;20052;-46
2023/08/14 05:50:34;;;;;;;14.45;12.90;;;15.80;99.90;;;;;;5054631;28;20522;-40
2023/08/14 05:53:03;;;;;;;14.38;12.88;;;16.00;99.90;;;;;;5047782;28;20354;-43
2023/08/14 05:55:34;;;;;;;15.18;13.57;;;16.10;99.90;;;;;;5075017;28;20079;-41
2023/08/14 05:58:00;;;;;;;16.48;12.23;;;16.20;99.90;;;;;;5075120;28;20391;-45
2023/08/14 06:00:26;;;;;;;14.77;12.48;;;16.40;99.90;;;;;;5075364;28;20063;-40
2023/08/14 06:02:52;;;;;;;14.65;11.98;;;16.60;99.90;;;;;;5060575;28;20040;-41
2023/08/14 06:05:18;;;;;;;16.25;12.77;;;16.80;99.90;;;;;;5073457;28;20079;-39
2023/08/14 06:07:46;;;;;;;13.57;11.25;;;16.80;99.90;;;;;;5074207;28;20452;-43
2023/08/14 06:10:12;;;;;;;13.55;12.13;;;16.90;99.90;;;;;;5075249;28;20048;-44
2023/08/14 06:12:37;;;;;;;16.92;11.23;;;16.90;99.90;;;;;;5073095;28;20476;-43
2023/08/14 06:15:03;;;;;;;12.05;10.85;;;16.90;99.90;;;;;;5058153;28;20110;-41
2023/08/14 06:17:29;;;;;;;12.70;11.23;;;16.90;99.90;;;;;;5043317;28;20056;-38
2023/08/14 06:19:55;;;;;;;16.88;11.00;;;17.00;99.90;;;;;;5078828;28;20055;-43
2023/08/14 06:22:20;;;;;;;13.77;11.30;;;17.00;99.90;;;;;;5072325;28;20557;-40
2023/08/14 06:24:46;;;;;;;13.95;11.98;;;17.00;99.90;;;;;;5077593;28;20048;-40
2023/08/14 06:27:12;;;;;;;13.05;10.65;;;17.00;99.90;;;;;;5078181;28;20593;-42
2023/08/14 06:29:38;;;;;;;13.00;11.30;;;17.10;99.90;;;;;;5077306;28;20390;-43
2023/08/14 06:32:06;;;;;;;14.13;11.93;;;17.10;99.90;;;;;;5077798;28;20453;-41
2023/08/14 06:34:33;;;;;;;13.23;11.20;;;17.20;99.90;;;;;;5078141;28;20129;-41
2023/08/14 06:36:58;;;;;;;12.75;11.20;;;17.30;99.90;;;;;;5077879;28;20553;-39
2023/08/14 06:39:24;;;;;;;12.55;11.02;;;17.70;99.90;;;;;;5076290;28;20536;-43
2023/08/14 06:41:50;;;;;;;11.43;10.30;;;18.10;99.90;;;;;;5077185;28;20101;-44
2023/08/14 06:44:15;;;;;;;11.52;9.48;;;18.70;99.90;;;;;;5077445;28;20045;-44
2023/08/14 06:46:42;;;;;;;10.68;9.70;;;19.20;99.90;;;;;;5078241;28;20062;-38
2023/08/14 06:49:09;;;;;;;10.40;9.30;;;19.50;99.90;;;;;;5078555;28;20055;-43
2023/08/14 06:51:35;;;;;;;12.07;9.73;;;19.70;99.90;;;;;;5067968;28;20055;-39
2023/08/14 06:54:01;;;;;;;10.90;9.30;;;19.70;99.90;;;;;;5057932;28;20040;-43
2023/08/14 06:56:27;;;;;;;12.13;9.52;;;19.70;99.90;;;;;;5062098;28;20040;-39
2023/08/14 06:58:52;;;;;;;10.60;9.02;;;19.70;99.90;;;;;;5057415;28;20047;-43
2023/08/14 07:01:20;;;;;;;10.20;9.13;;;19.80;99.90;;;;;;5058531;28;20053;-41
2023/08/14 07:03:45;;;;;;;11.52;9.70;;;20.00;99.90;;;;;;5059178;28;20118;-39
2023/08/14 07:06:11;;;;;;;10.48;8.35;;;20.20;99.90;;;;;;5057347;28;20480;-46
2023/08/14 07:08:38;;;;;;;10.80;8.07;;;20.40;99.90;;;;;;5057339;28;20048;-41
2023/08/14 07:11:04;;;;;;;12.20;8.02;;;20.30;99.90;;;;;;5057852;28;20049;-44
2023/08/14 07:13:30;;;;;;;9.75;8.30;;;20.30;99.90;;;;;;5057218;28;20036;-47
2023/08/14 07:15:56;;;;;;;10.30;9.18;;;20.20;99.90;;;;;;5053899;28;20048;-44
2023/08/14 07:18:21;;;;;;;9.70;7.88;;;20.10;99.90;;;;;;5057634;28;20046;-39
2023/08/14 07:20:47;;;;;;;11.45;8.55;;;20.10;99.90;;;;;;5058264;28;20491;-40
2023/08/14 07:23:17;;;;;;;10.07;7.32;;;20.30;99.90;;;;;;5053760;28;20076;-41
2023/08/14 07:25:44;;;;;;;9.30;8.45;;;20.30;99.90;;;;;;5055810;28;20044;-39
2023/08/14 07:28:10;;;;;;;12.30;7.10;;;20.30;99.90;;;;;;5056373;28;20113;-40
2023/08/14 07:30:37;;;;;;;9.90;7.40;;;20.20;99.90;;;;;;5057850;28;20469;-40
2023/08/14 07:33:04;;;;;;;10.68;7.20;;;20.10;99.90;;;;;;5056870;28;20501;-40
2023/08/14 07:35:30;;;;;;;6.68;6.07;;;20.00;99.90;;;;;;5059994;28;20055;-46
2023/08/14 07:37:56;;;;;;;10.90;7.43;;;20.00;99.90;;;;;;5058595;28;20410;-40
2023/08/14 07:40:22;;;;;;;7.75;6.28;;;19.90;99.90;;;;;;5056283;28;20047;-41
2023/08/14 07:42:47;;;;;;;11.52;6.72;;;19.80;99.90;;;;;;5055572;28;20123;-43
2023/08/14 07:45:13;;;;;;;10.00;6.78;;;19.70;99.90;;;;;;5057226;28;20400;-40
2023/08/14 07:47:39;;;;;;;7.80;6.95;;;19.60;99.90;;;;;;5056998;28;20044;-42
2023/08/14 07:50:05;;;;;;;8.18;6.65;;;19.60;99.90;;;;;;5063140;28;20098;-41
2023/08/14 07:52:30;;;;;;;8.07;6.50;;;19.60;99.90;;;;;;5051752;28;20094;-43
2023/08/14 07:54:57;;;;;;;10.00;6.80;;;19.60;99.90;;;;;;5062186;28;20047;-41
2023/08/14 07:57:23;;;;;;;8.07;6.80;;;19.60;99.90;;;;;;5075751;28;20594;-46
2023/08/14 07:59:50;;;;;;;7.82;6.05;;;19.90;99.90;;;;;;5063577;28;20052;-40
2023/08/14 08:02:16;;;;;;;7.50;5.32;;;20.20;99.90;;;;;;5061974;28;20388;-40
2023/08/14 08:04:42;;;;;;;7.05;5.57;;;20.30;99.90;;;;;;5056510;28;20047;-45
2023/08/14 08:07:08;;;;;;;10.00;5.78;;;20.50;99.90;;;;;;5056906;28;20604;-40
2023/08/14 08:09:33;;;;;;;7.50;5.40;;;20.60;99.90;;;;;;5056697;28;20051;-40
2023/08/14 08:11:59;;;;;;;5.90;4.97;;;20.70;99.90;;;;;;5056146;28;20044;-46
2023/08/14 08:14:25;;;;;;;7.03;4.55;;;20.90;99.90;;;;;;5054153;28;20036;-42
2023/08/14 08:16:51;;;;;;;5.28;4.70;;;20.90;99.90;;;;;;5055019;28;20064;-47
2023/08/14 08:19:17;;;;;;;7.97;4.55;;;21.00;99.90;;;;;;5056201;28;20438;-43
2023/08/14 08:21:43;;;;;;;6.82;4.25;;;21.10;99.90;;;;;;5051140;28;20070;-44
2023/08/14 08:24:08;;;;;;;6.13;4.60;;;21.10;99.90;;;;;;5061819;28;20059;-44
2023/08/14 08:26:35;;;;;;;8.73;5.22;;;21.30;99.90;;;;;;5073943;28;20416;-39
2023/08/14 08:29:00;;;;;;;9.70;5.35;;;21.50;99.90;;;;;;5055007;28;20048;-43
2023/08/14 08:31:26;;;;;;;7.15;4.38;;;21.60;99.90;;;;;;5056742;28;20647;-40
2023/08/14 08:33:52;;;;;;;8.00;4.20;;;21.80;99.90;;;;;;5057353;28;20053;-46
2023/08/14 08:36:18;;;;;;;6.53;4.15;;;22.00;99.90;;;;;;5055425;28;20048;-42
2023/08/14 08:38:47;;;;;;;4.53;3.22;;;22.20;99.90;;;;;;5053463;28;20382;-39
2023/08/14 08:41:18;;;;;;;4.57;2.90;;;22.30;99.90;;;;;;5053375;28;20097;-43
2023/08/14 08:43:44;;;;;;;5.05;3.08;;;22.40;99.90;;;;;;5055755;28;20107;-40
2023/08/14 08:46:12;;;;;;;4.28;2.60;;;22.50;99.90;;;;;;5054363;28;20147;-40
2023/08/14 08:48:42;;;;;;;5.75;2.47;;;22.60;99.90;;;;;;5052822;28;20089;-41
2023/08/14 08:51:08;;;;;;;5.35;2.80;;;22.40;99.90;;;;;;5051862;28;20052;-43
2023/08/14 08:53:35;;;;;;;6.40;2.33;;;22.30;99.90;;;;;;5053288;28;20047;-39
2023/08/14 08:56:02;;;;;;;4.10;1.92;;;22.10;99.90;;;;;;5080464;27;20747;-42
2023/08/14 08:58:28;;;;;;;7.07;2.45;;;22.00;99.90;;;;;;5054892;28;20047;-46
2023/08/14 09:00:57;;;;;;;5.88;1.90;;;21.90;99.90;;;;;;5053878;28;20398;-40
2023/08/14 09:03:23;;;;;;;4.53;2.30;;;21.70;99.90;;;;;;5052272;28;20132;-43
2023/08/14 09:05:51;;;;;;;5.78;2.33;;;21.90;99.90;;;;;;5054509;28;20044;-43
2023/08/14 09:08:18;;;;;;;7.45;2.40;;;22.10;99.90;;;;;;5053091;28;20049;-43
2023/08/14 09:10:44;;;;;;;6.22;2.50;;;22.50;99.90;;;;;;5054114;28;20080;-40
2023/08/14 09:13:10;;;;;;;5.75;2.45;;;22.60;99.90;;;;;;5053058;28;20453;-40
2023/08/14 09:15:41;;;;;;;4.88;2.30;;;22.80;99.90;;;;;;5050480;28;20041;-41
2023/08/14 09:18:06;;;;;;;4.10;2.28;;;23.00;99.90;;;;;;5064857;28;20159;-42
2023/08/14 09:20:32;;;;;;;5.25;2.10;;;23.20;99.90;;;;;;5074900;28;20567;-43
2023/08/14 09:22:59;;;;;;;5.47;1.67;;;23.10;99.90;;;;;;5058951;28;20664;-40
2023/08/14 09:25:26;;;;;;;3.85;1.73;;;23.10;99.90;;;;;;5053946;28;20509;-39
2023/08/14 09:27:54;;;;;;;6.65;2.70;;;23.20;99.90;;;;;;5052530;28;20062;-41
2023/08/14 09:30:20;;;;;;;3.38;1.70;;;23.30;99.90;;;;;;5058393;28;20063;-46
2023/08/14 09:32:46;;;;;;;5.20;1.80;;;23.40;99.90;;;;;;5074185;28;20079;-41
2023/08/14 09:35:12;;;;;;;3.13;1.60;;;23.40;99.90;;;;;;5055443;28;20084;-47
2023/08/14 09:37:39;;;;;;;5.20;2.30;;;23.30;99.90;;;;;;5053523;28;20139;-44
2023/08/14 09:40:18;;;;;;;4.25;2.10;;;23.20;99.90;;;;;;5053965;28;20045;-45
2023/08/14 09:42:46;;;;;;;5.65;1.75;;;23.30;99.90;;;;;;5053427;28;20102;-44
2023/08/14 09:45:13;;;;;;;3.45;1.45;;;23.40;99.90;;;;;;5053979;28;20076;-40
2023/08/14 09:47:43;;;;;;;5.55;1.83;;;23.50;99.90;;;;;;5055512;28;20052;-43
2023/08/14 09:50:12;;;;;;;3.33;1.70;;;23.60;99.90;;;;;;5054561;28;20138;-41
2023/08/14 09:52:48;;;;;;;4.75;2.15;;;23.70;99.90;;;;;;5054938;28;20514;-41
2023/08/14 09:55:14;;;;;;;5.28;1.83;;;23.90;99.90;;;;;;5057194;28;20052;-41
2023/08/14 09:57:41;;;;;;;5.07;2.10;;;24.10;99.90;;;;;;5056786;28;20061;-40
2023/08/14 10:00:07;;;;;;;5.40;2.08;;;24.20;99.90;;;;;;5058796;28;20274;-43
2023/08/14 10:02:34;;;;;;;6.10;2.17;;;24.20;99.90;;;;;;5057230;28;20460;-43
2023/08/14 10:05:04;;;;;;;6.10;1.75;;;24.30;99.90;;;;;;5057550;28;20088;-44
2023/08/14 10:07:31;;;;;;;4.55;1.80;;;24.60;99.90;;;;;;5056660;28;20060;-45
2023/08/14 10:09:59;;;;;;;4.75;1.92;;;24.70;99.90;;;;;;5058734;28;20453;-40
2023/08/14 10:12:37;;;;;;;4.28;1.77;;;24.80;99.90;;;;;;5057882;28;20041;-43
2023/08/14 10:15:14;;;;;;;4.40;1.83;;;24.80;99.90;;;;;;5057366;28;20164;-42
2023/08/14 10:18:11;;;;;;;4.63;1.95;;;25.20;99.90;;;;;;5058303;28;20510;-45
2023/08/14 10:20:38;;;;;;;4.40;1.90;;;25.40;99.90;;;;;;5065123;28;20131;-43
2023/08/14 10:23:07;;;;;;;3.40;1.60;;;25.40;99.90;;;;;;5054885;28;20044;-42
2023/08/14 10:25:36;;;;;;;7.88;2.05;;;25.30;99.90;;;;;;5055798;28;20048;-42
2023/08/14 10:28:02;;;;;;;2.78;1.50;;;25.40;99.90;;;;;;5059572;28;20364;-40
2023/08/14 10:30:29;;;;;;;4.20;1.65;;;25.40;99.90;;;;;;5058240;28;20048;-43
2023/08/14 10:32:55;;;;;;;3.63;1.70;;;25.40;99.90;;;;;;5057520;28;20213;-42
2023/08/14 10:35:22;;;;;;;5.63;1.90;;;25.50;99.90;;;;;;5078826;28;20044;-43
2023/08/14 10:37:49;;;;;;;3.53;1.70;;;25.20;99.90;;;;;;5056909;28;20049;-41
2023/08/14 10:40:16;;;;;;;3.38;1.63;;;25.10;99.90;;;;;;5058877;28;20483;-44
2023/08/14 10:42:45;;;;;;;3.08;1.63;;;25.00;99.90;;;;;;5058058;28;20064;-41
2023/08/14 10:45:14;;;;;;;4.35;2.28;;;24.80;99.90;;;;;;5057701;28;20044;-42
2023/08/14 10:47:41;;;;;;;7.85;2.38;;;24.80;99.90;;;;;;5040552;28;20056;-45
2023/08/14 10:50:28;;;;;;;6.82;2.40;;;24.90;99.90;;;;;;5058094;28;20118;-42
2023/08/14 10:52:55;;;;;;;3.03;1.67;;;24.80;99.90;;;;;;5055077;28;20051;-40
2023/08/14 10:55:39;;;;;;;4.55;1.90;;;24.80;99.90;;;;;;5055886;28;20123;-41
2023/08/14 10:58:36;;;;;;;3.13;1.40;;;24.80;99.90;;;;;;5056323;28;20083;-47
2023/08/14 11:01:11;;;;;;;4.68;1.60;;;24.90;99.90;;;;;;5054051;28;20144;-40
2023/08/14 11:04:03;;;;;;;5.38;1.80;;;25.10;99.90;;;;;;5053709;28;20036;-44
2023/08/14 11:07:00;;;;;;;5.22;1.88;;;25.10;99.90;;;;;;5057739;28;20048;-41
2023/08/14 11:09:30;;;;;;;3.40;1.65;;;25.10;99.90;;;;;;5058194;28;20050;-43
2023/08/14 11:11:57;;;;;;;6.22;2.28;;;25.20;99.90;;;;;;5054264;28;20506;-42
2023/08/14 11:14:23;;;;;;;3.75;1.77;;;25.10;99.90;;;;;;5055061;28;20415;-47
2023/08/14 11:16:49;;;;;;;5.13;1.60;;;25.20;99.90;;;;;;5057537;28;20044;-42
2023/08/14 11:19:18;;;;;;;2.25;1.60;;;25.20;99.90;;;;;;5058084;28;20051;-47
2023/08/14 11:21:49;;;;;;;4.88;1.98;;;25.10;99.90;;;;;;5055741;28;20044;-41
2023/08/14 11:24:15;;;;;;;5.68;1.60;;;24.90;99.90;;;;;;5056103;28;20040;-45
2023/08/14 11:26:40;;;;;;;4.68;1.85;;;24.70;99.90;;;;;;5055340;28;20044;-45
2023/08/14 11:29:06;;;;;;;5.82;1.70;;;24.70;99.90;;;;;;5057187;28;20178;-43
2023/08/14 11:31:31;;;;;;;3.60;1.80;;;24.80;99.90;;;;;;5057043;28;20102;-43
2023/08/14 11:33:58;;;;;;;3.08;1.65;;;25.10;99.90;;;;;;5056281;28;20045;-41
2023/08/14 11:36:24;;;;;;;3.45;1.48;;;25.30;99.90;;;;;;5058253;28;20079;-39
2023/08/14 11:38:51;;;;;;;4.22;2.03;;;25.30;99.90;;;;;;5056752;28;20139;-48
2023/08/14 11:41:17;;;;;;;5.68;2.00;;;25.50;99.90;;;;;;5055910;28;20115;-43
2023/08/14 11:43:45;;;;;;;5.13;1.90;;;25.60;99.90;;;;;;5056182;28;20036;-45
2023/08/14 11:46:11;;;;;;;9.07;2.30;;;25.50;99.90;;;;;;5055848;28;20495;-46
2023/08/14 11:48:38;;;;;;;6.15;2.17;;;25.40;99.90;;;;;;5055782;28;20050;-45
2023/08/14 11:51:05;;;;;;;3.92;2.17;;;25.30;99.90;;;;;;5052945;28;20161;-44
2023/08/14 11:53:31;;;;;;;4.30;2.10;;;25.30;99.90;;;;;;5052294;28;20055;-47
2023/08/14 11:55:57;;;;;;;4.43;2.03;;;25.50;99.90;;;;;;5054253;28;20260;-41
2023/08/14 11:58:22;;;;;;;4.65;2.30;;;25.50;99.90;;;;;;5054931;28;20105;-46
2023/08/14 12:00:52;;;;;;;8.07;2.42;;;25.40;99.90;;;;;;5054545;28;20075;-40
2023/08/14 12:03:18;;;;;;;4.57;2.08;;;25.30;99.90;;;;;;5054822;28;20491;-42
2023/08/14 12:05:47;;;;;;;5.47;2.42;;;25.10;99.90;;;;;;5053913;28;20390;-46
2023/08/14 12:08:13;;;;;;;6.00;2.97;;;25.10;99.90;;;;;;5055985;28;20106;-45
2023/08/14 12:10:40;;;;;;;6.13;2.90;;;25.20;99.90;;;;;;5053694;28;20076;-39
2023/08/14 12:13:06;;;;;;;4.53;2.50;;;25.30;99.90;;;;;;5055465;28;20040;-41
2023/08/14 12:15:31;;;;;;;6.72;2.67;;;25.20;99.90;;;;;;5052109;28;20049;-44
2023/08/14 12:17:57;;;;;;;6.82;3.13;;;25.30;99.90;;;;;;5055590;28;20044;-41
2023/08/14 12:20:23;;;;;;;6.32;2.50;;;25.40;99.90;;;;;;5055317;28;20087;-40
2023/08/14 12:22:49;;;;;;;8.52;3.40;;;25.50;99.90;;;;;;5051988;28;20549;-39
2023/08/14 12:25:20;;;;;;;5.95;2.38;;;25.50;99.90;;;;;;5054445;28;20558;-44
2023/08/14 12:27:46;;;;;;;6.03;2.65;;;25.60;99.90;;;;;;5055820;28;20101;-47
2023/08/14 12:30:12;;;;;;;7.68;2.90;;;25.80;99.90;;;;;;5055625;28;20056;-42
2023/08/14 12:32:47;;;;;;;5.90;2.60;;;25.90;99.90;;;;;;5055472;28;20289;-41
2023/08/14 12:35:13;;;;;;;7.38;3.08;;;25.80;99.90;;;;;;5072332;28;20047;-47
2023/08/14 12:37:39;;;;;;;7.00;3.08;;;25.90;99.90;;;;;;5075899;28;20453;-39
2023/08/14 12:40:09;;;;;;;4.97;2.92;;;26.00;99.90;;;;;;5075556;28;20140;-41
2023/08/14 12:42:36;;;;;;;6.15;2.60;;;26.20;99.90;;;;;;5075308;28;20148;-42